createdAt,value
2022-11-30T00:00:16.189Z,100
2022-11-30T00:05:14.378Z,100
2022-11-30T00:10:12.570Z,100
2022-11-30T00:15:10.867Z,100
2022-11-30T00:20:08.989Z,100
2022-11-30T00:25:07.562Z,100
2022-11-30T00:30:05.664Z,100
2022-11-30T00:35:03.784Z,100
2022-11-30T00:40:02.115Z,100
2022-11-30T00:45:00.196Z,100
2022-11-30T00:49:58.514Z,100
2022-11-30T00:54:56.680Z,100
2022-11-30T00:59:55.047Z,100
2022-11-30T01:04:53.231Z,100
2022-11-30T01:09:51.550Z,100
2022-11-30T01:14:49.774Z,100
2022-11-30T01:19:47.940Z,100
2022-11-30T01:24:46.596Z,100
2022-11-30T01:29:44.598Z,100
2022-11-30T01:34:42.721Z,100
2022-11-30T01:39:41.305Z,100
2022-11-30T01:44:39.609Z,100
2022-11-30T01:49:37.868Z,100
2022-11-30T01:54:36.104Z,100
2022-11-30T01:59:34.206Z,100
2022-11-30T02:04:32.379Z,100
2022-11-30T02:09:30.550Z,100
2022-11-30T02:14:28.551Z,100
2022-11-30T02:19:27.170Z,100
2022-11-30T02:24:25.196Z,100
2022-11-30T02:29:23.406Z,100
2022-11-30T02:34:21.582Z,100
2022-11-30T02:39:19.982Z,100
2022-11-30T02:44:18.173Z,100
2022-11-30T02:49:16.538Z,100
2022-11-30T02:54:14.622Z,100
2022-11-30T02:59:12.899Z,100
2022-11-30T03:04:11.330Z,100
2022-11-30T03:09:09.730Z,100
2022-11-30T03:14:07.626Z,100
2022-11-30T03:19:06.339Z,100
2022-11-30T03:24:04.500Z,100
2022-11-30T03:29:02.620Z,100
2022-11-30T03:34:00.800Z,100
2022-11-30T03:38:59.105Z,100
2022-11-30T03:43:57.147Z,100
2022-11-30T03:48:55.420Z,100
2022-11-30T03:53:53.652Z,100
2022-11-30T03:58:51.955Z,100
2022-11-30T04:03:50.064Z,100
2022-11-30T04:08:48.414Z,100
2022-11-30T04:13:46.387Z,100
2022-11-30T04:18:44.550Z,100
2022-11-30T04:23:42.900Z,100
2022-11-30T04:28:41.228Z,100
2022-11-30T04:33:39.378Z,100
2022-11-30T04:38:37.641Z,100
2022-11-30T04:43:35.899Z,100
2022-11-30T04:48:34.050Z,100
2022-11-30T04:53:32.192Z,100
2022-11-30T04:58:30.391Z,100
2022-11-30T05:03:28.605Z,100
2022-11-30T05:08:26.918Z,100
2022-11-30T05:13:25.316Z,100
2022-11-30T05:18:23.478Z,100
2022-11-30T05:23:21.874Z,100
2022-11-30T05:28:20.205Z,100
2022-11-30T05:33:18.338Z,100
2022-11-30T05:38:16.579Z,100
2022-11-30T05:43:14.839Z,100
2022-11-30T05:48:13.069Z,100
2022-11-30T05:53:11.532Z,100
2022-11-30T05:58:09.743Z,100
2022-11-30T06:03:08.741Z,100
2022-11-30T06:08:07.072Z,100
2022-11-30T06:13:05.342Z,100
2022-11-30T06:18:03.862Z,100
2022-11-30T06:23:02.679Z,98.7
2022-11-30T06:28:01.367Z,98.3
2022-11-30T06:32:59.762Z,98.3
2022-11-30T06:37:57.958Z,98.4
2022-11-30T06:42:55.904Z,99.1
2022-11-30T06:47:54.352Z,97.9
2022-11-30T06:52:52.921Z,96.6
2022-11-30T06:57:51.435Z,96
2022-11-30T07:02:50.003Z,95.9
2022-11-30T07:07:48.241Z,95.6
2022-11-30T07:12:46.454Z,94.9
2022-11-30T07:17:44.491Z,95.1
2022-11-30T07:22:42.939Z,95
2022-11-30T07:27:41.519Z,94.4
2022-11-30T07:32:40.135Z,92.4
2022-11-30T07:37:38.517Z,91.4
2022-11-30T07:42:36.783Z,90.3
2022-11-30T07:47:35.340Z,89.1
2022-11-30T07:52:33.993Z,87.8
2022-11-30T07:57:32.322Z,87.1
2022-11-30T08:02:30.695Z,86.2
2022-11-30T08:07:28.991Z,87.5
2022-11-30T08:12:27.121Z,87.3
2022-11-30T08:17:25.477Z,86.6
2022-11-30T08:22:23.918Z,86.5
2022-11-30T08:27:22.584Z,85.4
2022-11-30T08:32:21.047Z,84.8
2022-11-30T08:37:19.697Z,82.9
2022-11-30T08:42:18.249Z,81.8
2022-11-30T08:47:17.110Z,79.8
2022-11-30T08:52:17.792Z,76.2
2022-11-30T08:57:16.022Z,70
2022-11-30T09:02:15.490Z,67.1
2022-11-30T09:07:13.599Z,67
2022-11-30T09:12:11.158Z,68.7
2022-11-30T09:17:08.998Z,69.4
2022-11-30T09:22:07.162Z,69.3
2022-11-30T09:27:05.762Z,68
2022-11-30T09:32:03.878Z,67
2022-11-30T09:37:01.639Z,68.6
2022-11-30T09:41:59.447Z,70.5
2022-11-30T09:46:57.698Z,71.2
2022-11-30T09:51:56.013Z,71.5
2022-11-30T09:56:54.580Z,70
2022-11-30T10:01:56.788Z,71.5
2022-11-30T10:06:50.897Z,72.4
2022-11-30T10:11:49.089Z,71.6
2022-11-30T10:16:47.341Z,71.4
2022-11-30T10:21:46.224Z,69
2022-11-30T10:26:44.245Z,68.5
2022-11-30T10:31:42.221Z,70.4
2022-11-30T10:36:39.729Z,72.4
2022-11-30T10:41:37.485Z,73
2022-11-30T10:46:35.753Z,71.9
2022-11-30T10:51:34.259Z,73.1
2022-11-30T10:56:32.896Z,71.2
2022-11-30T11:01:32.244Z,68.4
2022-11-30T11:06:30.874Z,67.9
2022-11-30T11:11:29.120Z,68.7
2022-11-30T11:16:26.998Z,70.1
2022-11-30T13:04:43.791Z,76.8
2022-11-30T13:09:42.048Z,75.6
2022-11-30T13:14:40.314Z,75.1
2022-11-30T13:19:38.331Z,75.8
2022-11-30T13:24:36.555Z,77.4
2022-11-30T13:29:34.933Z,75.9
2022-11-30T13:34:33.064Z,77
2022-11-30T13:39:31.350Z,79.3
2022-11-30T13:44:29.137Z,79
2022-11-30T13:49:27.208Z,80
2022-11-30T13:54:27.886Z,82.3
2022-11-30T13:59:23.268Z,83.3
2022-11-30T14:04:21.265Z,83.9
2022-11-30T14:09:19.207Z,85
2022-11-30T14:14:17.125Z,84.8
2022-11-30T14:19:14.950Z,86.1
2022-11-30T14:24:13.104Z,87.5
2022-11-30T14:29:11.203Z,87.7
2022-11-30T14:34:09.297Z,87.9
2022-11-30T14:39:07.263Z,88.9
2022-11-30T14:44:05.317Z,90.2
2022-11-30T14:49:03.450Z,91.1
2022-11-30T14:54:01.428Z,92.4
2022-11-30T14:58:59.571Z,92.3
2022-11-30T15:03:57.566Z,92.4
2022-11-30T15:08:55.447Z,92.5
2022-11-30T15:13:53.521Z,92.8
2022-11-30T15:18:51.545Z,93.2
2022-11-30T15:23:51.524Z,94.2
2022-11-30T15:28:47.962Z,94.7
2022-11-30T15:33:46.450Z,94.7
2022-11-30T15:38:45.150Z,94.6
2022-11-30T15:43:43.489Z,95.5
2022-11-30T15:48:41.629Z,95.3
2022-11-30T15:53:39.864Z,95.2
2022-11-30T15:58:37.871Z,96.2
2022-11-30T16:03:36.982Z,96
2022-11-30T16:08:35.052Z,96.2
2022-11-30T16:13:33.296Z,96
2022-11-30T16:18:31.333Z,96.3
2022-11-30T16:23:29.425Z,96.2
2022-11-30T16:28:27.612Z,96.8
2022-11-30T16:33:25.905Z,97.2
2022-11-30T16:38:24.195Z,97.7
2022-11-30T16:43:22.423Z,98.2
2022-11-30T16:48:20.645Z,97.9
2022-11-30T16:53:18.938Z,97.4
2022-11-30T16:58:17.031Z,97.8
2022-11-30T17:03:15.240Z,97.9
2022-11-30T17:08:13.309Z,97.9
2022-11-30T17:13:11.440Z,98.4
2022-11-30T17:18:10.366Z,98.7
2022-11-30T17:23:08.867Z,98.8
2022-11-30T17:28:06.971Z,98.8
2022-11-30T17:33:05.207Z,98.5
2022-11-30T17:38:03.352Z,97.9
2022-11-30T17:43:01.855Z,98.6
2022-11-30T17:47:59.864Z,98.3
2022-11-30T17:52:58.071Z,99.1
2022-11-30T17:57:56.379Z,99.1
2022-11-30T18:02:54.768Z,98.8
2022-11-30T18:07:52.960Z,99.2
2022-11-30T18:12:51.161Z,99.4
2022-11-30T18:17:49.431Z,99.6
2022-11-30T18:22:47.842Z,99
2022-11-30T18:27:46.160Z,99.3
2022-11-30T18:32:44.539Z,99.4
2022-11-30T18:37:43.116Z,99.6
2022-11-30T18:42:41.375Z,99.2
2022-11-30T18:47:39.939Z,99.3
2022-11-30T18:52:38.331Z,99.8
2022-11-30T18:57:36.970Z,99.4
2022-11-30T19:02:35.272Z,99.7
2022-11-30T19:07:33.583Z,99.3
2022-11-30T19:12:31.969Z,100
2022-11-30T19:17:30.655Z,99.7
2022-11-30T19:22:28.978Z,99.7
2022-11-30T19:27:27.263Z,100
2022-11-30T19:32:25.596Z,100
2022-11-30T19:37:23.872Z,100
2022-11-30T19:42:22.187Z,100
2022-11-30T19:47:20.372Z,100
2022-11-30T19:52:18.638Z,100
2022-11-30T19:57:16.787Z,100
2022-11-30T20:02:15.110Z,100
2022-11-30T20:07:13.137Z,100
2022-11-30T20:12:11.552Z,100
2022-11-30T20:17:09.852Z,100
2022-11-30T20:22:08.229Z,100
2022-11-30T20:27:06.436Z,100
2022-11-30T20:32:04.574Z,100
2022-11-30T20:37:02.841Z,100
2022-11-30T20:42:01.038Z,100
2022-11-30T20:46:59.277Z,100
2022-11-30T20:51:57.525Z,100
2022-11-30T20:56:55.690Z,100
2022-11-30T21:01:53.884Z,100
2022-11-30T21:06:52.184Z,100
2022-11-30T21:11:50.438Z,100
2022-11-30T21:16:48.760Z,100
2022-11-30T21:21:47.046Z,100
2022-11-30T21:26:45.299Z,100
2022-11-30T21:31:43.540Z,100
2022-11-30T21:36:41.755Z,100
2022-11-30T21:41:39.922Z,100
2022-11-30T21:46:38.003Z,100
2022-11-30T21:51:36.085Z,100
2022-11-30T21:56:34.285Z,100
2022-11-30T22:01:32.500Z,100
2022-11-30T22:06:30.830Z,100
2022-11-30T22:11:29.047Z,100
2022-11-30T22:16:32.572Z,100
2022-11-30T22:21:25.435Z,100
2022-11-30T22:26:23.585Z,100
2022-11-30T22:31:21.941Z,100
2022-11-30T22:36:20.157Z,100
2022-11-30T22:41:18.493Z,100
2022-11-30T22:46:16.736Z,100
2022-11-30T22:51:14.893Z,100
2022-11-30T22:56:13.268Z,100
2022-11-30T23:01:11.358Z,100
2022-11-30T23:06:09.516Z,100
2022-11-30T23:11:08.158Z,100
2022-11-30T23:16:06.367Z,100
2022-11-30T23:21:04.623Z,100
2022-11-30T23:26:02.802Z,100
2022-11-30T23:30:59.083Z,100
2022-11-30T23:35:57.112Z,100
2022-11-30T23:40:55.246Z,100
2022-11-30T23:45:53.576Z,100
2022-11-30T23:50:51.632Z,100
2022-11-30T23:55:49.744Z,100
